Gervais, Oregon
Current Conditions -  °F | °C
As of 1:53 AM on Sunday 23 Nov 2014 (Local Time) from KUAO Reporting Station
Overcast Overcast  
Wind Chill: 42°   Ceiling: 4100
Heat Index: 47°   Visibility: 10mi
Dew Point: 44°   Wind: 12mph
Humidity: 90%   Direction: 190°S
Pressure: 30.3"   Gusts: NA
Location:  45.11°N, 122.9°W
Report Text: KUAO 230953Z AUTO 19010KT 10SM OVC041 08/07 A3030 RMK AO2 RAB21E53 SLP259 P0000 T00830067
Loading
Personal Weather Stations






























Interactive Weather Map New forecast layout! Learn more

10-Day Weather Forecast

Advertisements
Track Severe Weather on mobile